Hlavní strana
METAR-TAF:

METAR-TAF

Letiště :

Redstone Arsenal, Alabama, Spojené státy americké

zeměpisná šířka: 34-40-43N, zeměpisná délka: 086-41-05W, výška: 209 m

Aktuální stav počasí

Zpráva byla vytvořena před 24 minutami, v 08:58 UTC
Severoseverovýchodní vítr 7 kt
Teplota 5°C
Vlhkost vzduchu 93%
Tlak 1008 hPa
Viditelnost: 8.0 km
Oblačno až skoro zataženo ve výšce 900 ft
Zataženo ve výšce 1800 ft
slabý déšť, kouřmo

METAR: KHUA 160858Z AUTO 02007KT 5SM -RA BR BKN009 OVC018 05/04 A2978 RMK AO2 RAB37 SLP086 P0000 60013 T00500041 52033

Čas: 03:22 (09:22 UTC)


TAF: chybějící

Stav a předpovědi počasí z více než 4 000 letišť (zprávy METAR a TAF).

Červené a žluté tečky na mapě představují dostupné meteorologické stanice.

Když kurzor umístíte na tečku, zobrazí se název stanice.

Pak kliknutím zobrazíte stav a předpověď počasí.

Chcete-li změnit mapu, kliknutím na zelené tlačítko se znaménkem +mapu přiblížíte, kliknutím na zelené tlačítko se znaménkem – mapu oddálíte a kliknutím na zelené šipky přejdete na sousední mapy.


METAR-TAF: